• Join FlightAware (Why Join?)
  • Login
  • US Flag 
01:55AM EDT


 

Airport Tracker/Info


-or-


 

Live Flight TrackerFlight Track Log ✈ N20WL ✈ 13-May-2013 ✈ KTHA - KMOR

Flight Track Log - Related Links

Times and Time Zones

All times are in EDT time to prevent confusion due to time zone crossing. See the N20WL flight status page for this flight to view local times or setup timezone preferences in your user account.

Time Position Orientation Groundspeed Altitude Reporting Facility
EDT Latitude Longitude Course Direction KTS MPH feet Rate Location/Type
04:10PM 35.3567 -86.1947 90° East 250 288 6,600  Level Memphis Center
04:11PM 35.3736 -86.1378 70° East 219 252 8,900 1,200 Climbing Memphis Center
04:12PM 35.3875 -86.0606 78° East 208 239 9,000 1,380 Climbing Memphis Center
04:13PM 35.4042 -85.9936 73° East 214 246 11,700 2,160 Climbing Memphis Center
04:14PM 35.4164 -85.9292 77° East 202 232 13,400 1,680 Climbing Memphis Center
04:15PM 35.4667 -85.9117 90° East  Level FlightAware Approximate
04:15PM 35.4308 -85.8647 75° East 202 232 15,100  Level Memphis Center
04:16PM 35.4514 -85.8025 68° East 202 232 16,600 840 Climbing Memphis Center
04:17PM 35.4781 -85.7372 63° Northeast 197 227 16,800 120 Climbing Memphis Center
04:18PM 35.5086 -85.6617 64° Northeast 208 239 16,900  Climbing Memphis Center
04:19PM 35.5411 -85.5783 64° Northeast 242 278 16,900  Level Memphis Center
04:21PM 35.6086 -85.3850 67° East 272 313 17,100  Climbing Atlanta Center
04:22PM 35.6325 -85.2958 72° East 272 313 17,000  Descending Atlanta Center
04:23PM 35.6544 -85.2017 74° East 272 313 17,100  Climbing Atlanta Center
04:24PM 35.6761 -85.1100 74° East 272 313 17,100  Level Atlanta Center
04:25PM 35.6997 -85.0208 72° East 272 313 17,100  Level Atlanta Center
04:26PM 35.7275 -84.9239 71° East 272 313 17,100  Level Atlanta Center
04:27PM 35.7575 -84.8372 67° East 272 313 17,100 -60 Level Atlanta Center
04:28PM 35.7850 -84.7531 68° East 267 307 17,000 -600 Descending Atlanta Center
04:29PM 35.8169 -84.6611 67° East 274 315 16,000 -1,020 Descending Atlanta Center
04:30PM 35.8444 -84.5717 69° East 279 321 15,000 -1,020 Descending Atlanta Center
04:31PM 35.8656 -84.4717 75° East 284 327 14,000 -1,020 Descending Atlanta Center
04:32PM 35.8889 -84.3769 73° East 289 333 13,000 -1,080 Descending Atlanta Center
04:33PM 35.9161 -84.2875 69° East 284 327 11,900 -1,200 Descending Atlanta Center
04:34PM 35.9456 -84.2003 67° East 272 313 10,700 -900 Descending Atlanta Center
04:35PM 35.9728 -84.1208 67° East 266 306 10,100 -1,020 Descending Atlanta Center
04:36PM 36.0000 -84.0542 63° Northeast 235 270 8,700 -1,380 Descending Atlanta Center
04:37PM 36.0208 -83.9797 71° East 222 255 7,400 -1,320 Descending Atlanta Center
04:38PM 36.0353 -83.9078 76° East 217 250 6,100 -1,200 Descending Atlanta Center
04:39PM 36.0497 -83.8408 75° East 212 244 5,100 -1,020 Descending Atlanta Center
04:41PM 36.0732 -83.7572 73° East  Level FlightAware Approximate
04:48PM 36.1667 -83.3667 90° East  Level FlightAware Approximate
04:49PM 36.1794 -83.3754 90° East  Level Estimated